BEL4VB EBBR-LGZA
Flight info
| Callsign | BEL4VB |
|---|---|
| Flight time | N/A |
| Altitude | 37000 |
| Route | SOPOK Y863 ROPUV L607 ULNOK DCT VIBOM DCT NOMBO DCT RIDAR DCT RADIZ DCT SIPAL DCT RODON DCT LIMJA DCT PITAS/N0427F330 UN732 KRK UT321 ASTUS |
| Aircraft | A320/M-DE3FGHIJ1LORVWY/HB1 |
Departure
| Time | 2026-05-04 10:41 |
|---|---|
| Airport | Brussels Airport (EBBR) |
Arrival
| Time | N/A |
|---|---|
| Airport | Zakynthos International Airport Dionysios Solomos (LGZA) |
| Time | Latitude | Longitude | Altitude | Speed | Heading |
|---|---|---|---|---|---|
| 2026-05-04 10:21 | 50.90451 | 4.48729 | 118 ft | 0 kts | 155° |
| 2026-05-04 10:33 | 50.90460 | 4.48722 | 116 ft | 2 kts | 151° |
| 2026-05-04 10:33 | 50.90474 | 4.48710 | 117 ft | 2 kts | 150° |
| 2026-05-04 10:33 | 50.90488 | 4.48697 | 116 ft | 2 kts | 145° |
| 2026-05-04 10:33 | 50.90501 | 4.48681 | 116 ft | 2 kts | 136° |
| 2026-05-04 10:34 | 50.90512 | 4.48662 | 117 ft | 2 kts | 115° |
| 2026-05-04 10:34 | 50.90517 | 4.48637 | 116 ft | 2 kts | 79° |
| 2026-05-04 10:34 | 50.90514 | 4.48618 | 119 ft | 1 kts | 65° |
| 2026-05-04 10:34 | 50.90513 | 4.48616 | 120 ft | 0 kts | 65° |
| 2026-05-04 10:36 | 50.90514 | 4.48620 | 119 ft | 2 kts | 65° |
| 2026-05-04 10:36 | 50.90527 | 4.48665 | 116 ft | 8 kts | 66° |
| 2026-05-04 10:36 | 50.90562 | 4.48789 | 118 ft | 15 kts | 65° |
| 2026-05-04 10:37 | 50.90606 | 4.48943 | 121 ft | 16 kts | 65° |
| 2026-05-04 10:37 | 50.90655 | 4.49094 | 119 ft | 11 kts | 48° |
| 2026-05-04 10:37 | 50.90727 | 4.49108 | 121 ft | 11 kts | 28° |
| 2026-05-04 10:37 | 50.90761 | 4.49204 | 119 ft | 9 kts | 66° |
| 2026-05-04 10:39 | 50.91068 | 4.49931 | 118 ft | 15 kts | 21° |
| 2026-05-04 10:39 | 50.91138 | 4.49903 | 119 ft | 10 kts | 281° |
| 2026-05-04 10:39 | 50.91131 | 4.49859 | 119 ft | 1 kts | 245° |
| 2026-05-04 10:40 | 50.91105 | 4.49769 | 118 ft | 33 kts | 245° |
| 2026-05-04 10:40 | 50.90902 | 4.49064 | 119 ft | 103 kts | 245° |
| 2026-05-04 10:40 | 50.90524 | 4.47758 | 122 ft | 156 kts | 245° |
| 2026-05-04 10:40 | 50.90199 | 4.46652 | 275 ft | 170 kts | 247° |
| 2026-05-04 10:41 | 50.88503 | 4.40727 | 3071 ft | 163 kts | 245° |
| 2026-05-04 10:41 | 50.88022 | 4.39079 | 3612 ft | 173 kts | 244° |
| 2026-05-04 10:42 | 50.87480 | 4.37234 | 3995 ft | 196 kts | 245° |
| 2026-05-04 10:42 | 50.86870 | 4.35152 | 4442 ft | 222 kts | 244° |
| 2026-05-04 10:42 | 50.86174 | 4.32821 | 5042 ft | 246 kts | 241° |
| 2026-05-04 10:42 | 50.84959 | 4.30817 | 5637 ft | 264 kts | 207° |
| 2026-05-04 10:43 | 50.83156 | 4.30295 | 6446 ft | 271 kts | 172° |
| 2026-05-04 10:44 | 50.74493 | 4.46988 | 11556 ft | 313 kts | 120° |
| 2026-05-04 10:45 | 50.73586 | 4.50255 | 11745 ft | 337 kts | 110° |
| 2026-05-04 10:45 | 50.72905 | 4.53863 | 12254 ft | 347 kts | 106° |
| 2026-05-04 10:45 | 50.72314 | 4.57585 | 12937 ft | 352 kts | 105° |
| 2026-05-04 10:45 | 50.71916 | 4.60124 | 13421 ft | 354 kts | 105° |
| 2026-05-04 10:46 | 50.71300 | 4.63907 | 14085 ft | 357 kts | 106° |
| 2026-05-04 10:46 | 50.70640 | 4.67696 | 14689 ft | 361 kts | 107° |
| 2026-05-04 10:46 | 50.69932 | 4.71514 | 15304 ft | 364 kts | 108° |
| 2026-05-04 10:46 | 50.69190 | 4.75348 | 16116 ft | 367 kts | 108° |
| 2026-05-04 10:47 | 50.68421 | 4.79225 | 16941 ft | 372 kts | 108° |
| 2026-05-04 10:47 | 50.67640 | 4.83138 | 17680 ft | 377 kts | 109° |
| 2026-05-04 10:47 | 50.66852 | 4.87085 | 18311 ft | 379 kts | 109° |
| 2026-05-04 10:47 | 50.65978 | 4.91016 | 18817 ft | 381 kts | 117° |
| 2026-05-04 10:49 | 50.56522 | 5.16968 | 22408 ft | 400 kts | 124° |
| 2026-05-04 10:49 | 50.55117 | 5.20765 | 22928 ft | 404 kts | 124° |
| 2026-05-04 10:50 | 50.53702 | 5.24594 | 23401 ft | 407 kts | 124° |
| 2026-05-04 10:51 | 50.43567 | 5.51962 | 26145 ft | 421 kts | 125° |
| 2026-05-04 10:52 | 50.42080 | 5.55938 | 26462 ft | 424 kts | 126° |
| 2026-05-04 10:52 | 50.40585 | 5.59938 | 26794 ft | 427 kts | 126° |
| 2026-05-04 10:52 | 50.39081 | 5.63956 | 27118 ft | 429 kts | 126° |
| 2026-05-04 10:54 | 50.28283 | 5.92671 | 29277 ft | 445 kts | 126° |
| 2026-05-04 10:54 | 50.26703 | 5.96837 | 29551 ft | 447 kts | 126° |
| 2026-05-04 10:56 | 50.18792 | 6.28558 | 31324 ft | 481 kts | 90° |
| 2026-05-04 10:56 | 50.19123 | 6.33761 | 31588 ft | 482 kts | 89° |
| 2026-05-04 10:56 | 50.19452 | 6.38964 | 31856 ft | 482 kts | 89° |
| 2026-05-04 10:57 | 50.19779 | 6.44239 | 32093 ft | 482 kts | 89° |
| 2026-05-04 10:57 | 50.20090 | 6.49388 | 32332 ft | 483 kts | 89° |
| 2026-05-04 10:57 | 50.20402 | 6.54608 | 32590 ft | 483 kts | 89° |
| 2026-05-04 10:57 | 50.20715 | 6.59899 | 32860 ft | 483 kts | 89° |
| 2026-05-04 10:58 | 50.21025 | 6.65117 | 33123 ft | 483 kts | 89° |
| 2026-05-04 10:58 | 50.21336 | 6.70347 | 33393 ft | 484 kts | 89° |
| 2026-05-04 10:58 | 50.21645 | 6.75576 | 33672 ft | 484 kts | 89° |
| 2026-05-04 10:58 | 50.21954 | 6.80805 | 34003 ft | 484 kts | 89° |
| 2026-05-04 10:59 | 50.22098 | 6.86029 | 34301 ft | 479 kts | 97° |
| 2026-05-04 10:59 | 50.21866 | 6.91187 | 34571 ft | 477 kts | 99° |
| 2026-05-04 10:59 | 50.21596 | 6.96353 | 34764 ft | 477 kts | 99° |
| 2026-05-04 10:59 | 50.21327 | 7.01518 | 34982 ft | 477 kts | 99° |
| 2026-05-04 11:00 | 50.21060 | 7.06670 | 35211 ft | 476 kts | 99° |
| 2026-05-04 11:01 | 50.17730 | 7.41965 | 36615 ft | 463 kts | 113° |
| 2026-05-04 11:02 | 50.16714 | 7.46730 | 36788 ft | 463 kts | 113° |
| 2026-05-04 11:02 | 50.15705 | 7.51486 | 36959 ft | 462 kts | 112° |
| 2026-05-04 11:05 | 49.97219 | 8.13859 | 37035 ft | 451 kts | 129° |
| 2026-05-04 11:06 | 49.93693 | 8.21914 | 37025 ft | 451 kts | 129° |
| 2026-05-04 11:06 | 49.90224 | 8.29804 | 37000 ft | 452 kts | 129° |
| 2026-05-04 11:10 | 49.63486 | 8.83328 | 37033 ft | 449 kts | 133° |
| 2026-05-04 11:12 | 49.47813 | 9.13230 | 37019 ft | 449 kts | 133° |
| 2026-05-04 11:12 | 49.44232 | 9.21141 | 37027 ft | 452 kts | 127° |
| 2026-05-04 11:13 | 49.40791 | 9.29234 | 37034 ft | 453 kts | 127° |
| 2026-05-04 11:13 | 49.37349 | 9.37317 | 37036 ft | 452 kts | 128° |
| 2026-05-04 11:14 | 49.34102 | 9.44897 | 37007 ft | 452 kts | 127° |
| 2026-05-04 11:16 | 49.20211 | 9.77062 | 37040 ft | 452 kts | 128° |
| 2026-05-04 11:16 | 49.16735 | 9.85058 | 37024 ft | 451 kts | 128° |
| 2026-05-04 11:17 | 49.13262 | 9.93042 | 37024 ft | 451 kts | 128° |
| 2026-05-04 11:19 | 48.99681 | 10.18951 | 37009 ft | 445 kts | 139° |
| 2026-05-04 11:19 | 48.97493 | 10.22274 | 37009 ft | 445 kts | 139° |
| 2026-05-04 11:19 | 48.93106 | 10.28932 | 37024 ft | 446 kts | 139° |
| 2026-05-04 11:20 | 48.88712 | 10.35577 | 37030 ft | 446 kts | 139° |
| 2026-05-04 11:20 | 48.84306 | 10.42221 | 37041 ft | 446 kts | 139° |
| 2026-05-04 11:22 | 48.66624 | 10.68711 | 37038 ft | 447 kts | 139° |
| 2026-05-04 11:23 | 48.62185 | 10.75302 | 37039 ft | 447 kts | 139° |
| 2026-05-04 11:25 | 48.47976 | 11.00472 | 37033 ft | 450 kts | 133° |
| 2026-05-04 11:25 | 48.44021 | 11.07773 | 37033 ft | 450 kts | 133° |
| 2026-05-04 11:27 | 48.26203 | 11.40436 | 37017 ft | 449 kts | 133° |
| 2026-05-04 11:28 | 48.22232 | 11.47659 | 37018 ft | 449 kts | 133° |
| 2026-05-04 11:28 | 48.18260 | 11.54878 | 37018 ft | 449 kts | 133° |
| 2026-05-04 11:29 | 48.14277 | 11.62084 | 37006 ft | 449 kts | 133° |
| 2026-05-04 11:29 | 48.10286 | 11.69276 | 36995 ft | 449 kts | 133° |
| 2026-05-04 11:33 | 47.82213 | 12.19425 | 36996 ft | 449 kts | 133° |
| 2026-05-04 11:33 | 47.78191 | 12.26523 | 36999 ft | 449 kts | 133° |
| 2026-05-04 11:34 | 47.74168 | 12.33620 | 37000 ft | 449 kts | 133° |
| 2026-05-04 11:34 | 47.70143 | 12.40706 | 37005 ft | 448 kts | 133° |
| 2026-05-04 11:35 | 47.66795 | 12.46578 | 37010 ft | 448 kts | 133° |
| 2026-05-04 11:35 | 47.62699 | 12.53512 | 37001 ft | 445 kts | 139° |
| 2026-05-04 11:36 | 47.57844 | 12.59217 | 36991 ft | 442 kts | 146° |
| 2026-05-04 11:36 | 47.52928 | 12.64678 | 36989 ft | 442 kts | 146° |
| 2026-05-04 11:37 | 47.48004 | 12.70142 | 36988 ft | 442 kts | 146° |
| 2026-05-04 11:37 | 47.43082 | 12.75602 | 36994 ft | 443 kts | 146° |
| 2026-05-04 11:38 | 47.38155 | 12.81050 | 37004 ft | 443 kts | 146° |
| 2026-05-04 11:38 | 47.33225 | 12.86500 | 37009 ft | 443 kts | 146° |
| 2026-05-04 11:39 | 47.28296 | 12.91933 | 37027 ft | 443 kts | 146° |
| 2026-05-04 11:41 | 47.10991 | 13.10863 | 37047 ft | 443 kts | 146° |
| 2026-05-04 11:41 | 47.06039 | 13.16251 | 37048 ft | 443 kts | 146° |
| 2026-05-04 11:42 | 47.01081 | 13.21628 | 37058 ft | 443 kts | 146° |
| 2026-05-04 11:42 | 46.96118 | 13.27011 | 37053 ft | 444 kts | 146° |
| 2026-05-04 11:43 | 46.91148 | 13.32392 | 37068 ft | 444 kts | 146° |
| 2026-05-04 11:43 | 46.86138 | 13.37801 | 37069 ft | 445 kts | 146° |
| 2026-05-04 11:44 | 46.81157 | 13.43160 | 37076 ft | 445 kts | 146° |
| 2026-05-04 11:44 | 46.76173 | 13.48503 | 37078 ft | 444 kts | 146° |
| 2026-05-04 11:45 | 46.71186 | 13.53844 | 37074 ft | 445 kts | 146° |
| 2026-05-04 11:45 | 46.66181 | 13.59184 | 37064 ft | 446 kts | 146° |
| 2026-05-04 11:46 | 46.61171 | 13.64515 | 37075 ft | 446 kts | 146° |
| 2026-05-04 11:46 | 46.56158 | 13.69847 | 37073 ft | 447 kts | 146° |
| 2026-05-04 11:47 | 46.51140 | 13.75176 | 37072 ft | 447 kts | 147° |
| 2026-05-04 11:47 | 46.46118 | 13.80495 | 37074 ft | 447 kts | 146° |
| 2026-05-04 11:48 | 46.41087 | 13.85814 | 37068 ft | 448 kts | 146° |
| 2026-05-04 11:48 | 46.36043 | 13.91130 | 37073 ft | 449 kts | 147° |
| 2026-05-04 11:49 | 46.30982 | 13.96451 | 37068 ft | 450 kts | 146° |
| 2026-05-04 11:49 | 46.25916 | 14.01761 | 37091 ft | 450 kts | 146° |
| 2026-05-04 11:50 | 46.20849 | 14.07065 | 37080 ft | 450 kts | 146° |
| 2026-05-04 11:50 | 46.15776 | 14.12353 | 37079 ft | 450 kts | 146° |
| 2026-05-04 11:51 | 46.10669 | 14.17666 | 37076 ft | 450 kts | 146° |
| 2026-05-04 11:51 | 46.05584 | 14.22959 | 37066 ft | 451 kts | 146° |
| 2026-05-04 11:52 | 46.00490 | 14.28248 | 37072 ft | 452 kts | 146° |
| 2026-05-04 11:52 | 45.95382 | 14.33526 | 37074 ft | 452 kts | 147° |
| 2026-05-04 11:53 | 45.90261 | 14.38800 | 37083 ft | 453 kts | 146° |
| 2026-05-04 11:53 | 45.85131 | 14.44070 | 37088 ft | 454 kts | 146° |
| 2026-05-04 11:55 | 45.64592 | 14.65100 | 37095 ft | 454 kts | 146° |
| 2026-05-04 11:56 | 45.59452 | 14.70335 | 37082 ft | 454 kts | 146° |
| 2026-05-04 11:56 | 45.54296 | 14.75564 | 37085 ft | 455 kts | 146° |
| 2026-05-04 11:57 | 45.49124 | 14.80794 | 37088 ft | 456 kts | 146° |
| 2026-05-04 11:57 | 45.43947 | 14.86023 | 37093 ft | 456 kts | 146° |
| 2026-05-04 11:58 | 45.38773 | 14.91246 | 37103 ft | 456 kts | 146° |
| 2026-05-04 11:58 | 45.33551 | 14.96499 | 37099 ft | 457 kts | 146° |
| 2026-05-04 11:59 | 45.28357 | 15.01715 | 37086 ft | 457 kts | 146° |
| 2026-05-04 11:59 | 45.23160 | 15.06924 | 37100 ft | 458 kts | 146° |
| 2026-05-04 12:00 | 45.17952 | 15.12119 | 37095 ft | 458 kts | 146° |
| 2026-05-04 12:00 | 45.12735 | 15.17321 | 37091 ft | 458 kts | 146° |
| 2026-05-04 12:01 | 45.07518 | 15.22509 | 37088 ft | 459 kts | 146° |
| 2026-05-04 12:02 | 44.89205 | 15.40629 | 37109 ft | 459 kts | 146° |
| 2026-05-04 12:03 | 44.83967 | 15.45796 | 37102 ft | 460 kts | 146° |
| 2026-05-04 12:03 | 44.78715 | 15.50946 | 37101 ft | 460 kts | 146° |
| 2026-05-04 12:04 | 44.73458 | 15.56092 | 37099 ft | 460 kts | 146° |
| 2026-05-04 12:04 | 44.68197 | 15.61244 | 37087 ft | 461 kts | 147° |
| 2026-05-04 12:05 | 44.62932 | 15.66374 | 37106 ft | 461 kts | 146° |
| 2026-05-04 12:05 | 44.57660 | 15.71508 | 37098 ft | 462 kts | 146° |
| 2026-05-04 12:06 | 44.52373 | 15.76644 | 37092 ft | 463 kts | 146° |
| 2026-05-04 12:06 | 44.47040 | 15.81806 | 37090 ft | 463 kts | 146° |
| 2026-05-04 12:07 | 44.41739 | 15.86929 | 37103 ft | 463 kts | 147° |
| 2026-05-04 12:07 | 44.37332 | 15.91182 | 37111 ft | 463 kts | 146° |
| 2026-05-04 12:08 | 44.32019 | 15.96298 | 37109 ft | 464 kts | 146° |
| 2026-05-04 12:08 | 44.26695 | 16.01411 | 37107 ft | 465 kts | 146° |
| 2026-05-04 12:09 | 44.21361 | 16.06527 | 37102 ft | 465 kts | 147° |
| 2026-05-04 12:09 | 44.15842 | 16.11802 | 37114 ft | 465 kts | 147° |
| 2026-05-04 12:10 | 44.10505 | 16.16897 | 37119 ft | 466 kts | 146° |
| 2026-05-04 12:10 | 44.05154 | 16.21994 | 37115 ft | 467 kts | 146° |
| 2026-05-04 12:11 | 43.99750 | 16.27125 | 37108 ft | 467 kts | 147° |
| 2026-05-04 12:11 | 43.94377 | 16.32207 | 37115 ft | 468 kts | 147° |
| 2026-05-04 12:12 | 43.89000 | 16.37288 | 37122 ft | 468 kts | 147° |
| 2026-05-04 12:12 | 43.83619 | 16.42365 | 37127 ft | 468 kts | 146° |
| 2026-05-04 12:14 | 43.61979 | 16.62665 | 37121 ft | 471 kts | 147° |
| 2026-05-04 12:15 | 43.56556 | 16.67738 | 37123 ft | 471 kts | 147° |
| 2026-05-04 12:15 | 43.51123 | 16.72797 | 37135 ft | 472 kts | 146° |
| 2026-05-04 12:16 | 43.45683 | 16.77847 | 37124 ft | 472 kts | 146° |
| 2026-05-04 12:16 | 43.40231 | 16.82899 | 37129 ft | 472 kts | 146° |
| 2026-05-04 12:17 | 43.34775 | 16.87945 | 37131 ft | 473 kts | 147° |
| 2026-05-04 12:17 | 43.29310 | 16.92983 | 37129 ft | 473 kts | 147° |
| 2026-05-04 12:18 | 43.23843 | 16.98019 | 37133 ft | 474 kts | 147° |
| 2026-05-04 12:18 | 43.18333 | 17.03087 | 37137 ft | 474 kts | 147° |
| 2026-05-04 12:19 | 43.12942 | 17.08278 | 37144 ft | 474 kts | 139° |
| 2026-05-04 12:19 | 43.08080 | 17.14364 | 37136 ft | 474 kts | 137° |
| 2026-05-04 12:20 | 43.03204 | 17.20467 | 37137 ft | 475 kts | 137° |
| 2026-05-04 12:20 | 42.98321 | 17.26550 | 37141 ft | 475 kts | 137° |
| 2026-05-04 12:21 | 42.93432 | 17.32622 | 37136 ft | 475 kts | 137° |
| 2026-05-04 12:21 | 42.88533 | 17.38684 | 37138 ft | 475 kts | 137° |
| 2026-05-04 12:22 | 42.83635 | 17.44741 | 37140 ft | 476 kts | 137° |
| 2026-05-04 12:22 | 42.82807 | 17.45765 | 37138 ft | 476 kts | 137° |